Atlantic City, NJ

7:02 PM EST on March 05, 2015 (GMT -0500)
APRSWXNET Cape May Court House NJ US | Change Station
CLOSE
Current Station
Personal Weather Station
Location: Absecon, NJ
Elevation: 9 ft
Nearby Weather Stations

Elev 9 ft 39.40 °N, 74.47 °W | Updated 39 minutes ago

Snow
Snow
23 °F
Feels Like 18 °F
N
4
Wind Variable Wind from WNW
Gusts 11.0 mph

Today
High -- | Low -- °F
--% Chance of Precip.
Yesterday
High -- | Low -- °F
Precip. -- in
6:25 AM 5:54 PM
Full, 100% visible
Pressure 30.24 in
Visibility 1.0 miles
Clouds Overcast 1600 ft
Windchill 18 °F
Dew Point 22 °F
Humidity 96%
Rainfall in
Snow Depth Not available.
UV 0 out of 12
Pollen .60 out of 12
Air Quality Not available.
Flu Activity Not available.
METAR KACY 052354Z 34011KT 1SM -SN BR OVC016 M06/M08 A3024 RMK AO2 SFC VIS 1 1/2 SLP239 P0094 60177 T10611078 11017 21061 53017

More Conditions Fewer Conditions

Pressure 30.24 in
Visibility 1.0 miles
Clouds Overcast 1600 ft
Windchill 18 °F
Dew Point 22 °F
Humidity 96%
Rainfall in
Snow Depth Not available.
UV 0 out of 12
Pollen .60 out of 12
Air Quality Not available.
Flu Activity Not available.
METAR KACY 052354Z 34011KT 1SM -SN BR OVC016 M06/M08 A3024 RMK AO2 SFC VIS 1 1/2 SLP239 P0094 60177 T10611078 11017 21061 53017

More Conditions Fewer Conditions

10-Day Weather Forecast

Almanac

Astronomy

Mar. 05, 2015 Rise Set
Actual Time
Civil Twilight
Nautical Twilight
Astronomical Twilight
Moon
Length of Visible Light
Length of Day
Tomorrow will be .
, % of the Moon is Illuminated

Today's Extremes

State Highs State Lows

Community

WunderPhotos

Upload Photos

1,803,066 photos uploaded!

WunderBlogs® & News

Nearby

Air Quality

  Air Quality AQ Index Pollutant
Not available.

Snow Depth

Station Depth Elevation

Earthquake Activity

City Distance Mag. Time & Date
Minimum magnitude displayed is 2.5.

Coastal Water Temperatures

Place Temperature

Nearby Weather Stations

Winter Storm Warning
Statement as of 6:48 PM EST on March 05, 2015

... Winter Storm Warning now in effect until 8 PM EST this
evening...

* locations... a portion of marylands Eastern Shore through central
Delaware across the southeast coast of New Jersey.

* Hazard types... snow.

* Snow accumulations... total storm accumulations of 4 to 8
inches.

* Timing... snow will be tapering to a few flurries between 730 PM and
8 PM this evening.

* Temperatures... near 20 degrees followed by near record cold
overnight.

* Wind... north to northwest gusting to 20 mph.

* Impacts... widespread and substantial impacts on travel are
expected.

Precautionary/preparedness actions...

This Winter Storm Warning means that significant amounts of snow
are expected. The snow will make travel very hazardous or impossible.
Be safe when removing the snow... not only with consideration for
nearby vehicles passing by the snow removal area... but also the
weight of this newly fallen snow may be a hazard for for those
with heart related issues.